sensor_id;sensor_type;location;lat;lon;timestamp;temperature;humidity
6903;DHT22;20232;49.408;8.702;2023-01-29T05:01:13;0.90;99.90
6903;DHT22;20232;49.408;8.702;2023-01-29T05:03:45;0.90;99.90
6903;DHT22;20232;49.408;8.702;2023-01-29T05:06:11;0.90;99.90
6903;DHT22;20232;49.408;8.702;2023-01-29T05:08:38;0.80;99.90
6903;DHT22;20232;49.408;8.702;2023-01-29T05:11:04;0.80;99.90
6903;DHT22;20232;49.408;8.702;2023-01-29T05:13:31;0.70;99.90
6903;DHT22;20232;49.408;8.702;2023-01-29T05:16:03;0.70;99.90
6903;DHT22;20232;49.408;8.702;2023-01-29T05:18:30;0.70;99.90
6903;DHT22;20232;49.408;8.702;2023-01-29T05:20:59;0.70;99.90
6903;DHT22;20232;49.408;8.702;2023-01-29T05:23:26;0.70;99.90
6903;DHT22;20232;49.408;8.702;2023-01-29T05:25:51;0.60;99.90
6903;DHT22;20232;49.408;8.702;2023-01-29T05:28:17;0.60;99.90
6903;DHT22;20232;49.408;8.702;2023-01-29T05:30:48;0.50;99.90
6903;DHT22;20232;49.408;8.702;2023-01-29T05:33:26;0.50;99.90
6903;DHT22;20232;49.408;8.702;2023-01-29T05:35:52;0.40;99.90
6903;DHT22;20232;49.408;8.702;2023-01-29T05:38:19;0.30;99.90
6903;DHT22;20232;49.408;8.702;2023-01-29T05:40:44;0.30;99.90
6903;DHT22;20232;49.408;8.702;2023-01-29T05:43:18;0.20;99.90
6903;DHT22;20232;49.408;8.702;2023-01-29T05:45:51;0.20;99.90
6903;DHT22;20232;49.408;8.702;2023-01-29T05:48:17;0.20;99.90
6903;DHT22;20232;49.408;8.702;2023-01-29T05:50:43;0.30;99.90
6903;DHT22;20232;49.408;8.702;2023-01-29T05:53:09;0.40;99.90
6903;DHT22;20232;49.408;8.702;2023-01-29T05:55:34;0.40;99.90
6903;DHT22;20232;49.408;8.702;2023-01-29T05:58:00;0.40;99.90
6903;DHT22;20232;49.408;8.702;2023-01-29T06:00:25;0.40;99.90
6903;DHT22;20232;49.408;8.702;2023-01-29T06:02:51;0.40;99.90
6903;DHT22;20232;49.408;8.702;2023-01-29T06:05:16;0.40;99.90
6903;DHT22;20232;49.408;8.702;2023-01-29T06:07:42;0.50;99.90
6903;DHT22;20232;49.408;8.702;2023-01-29T06:10:11;0.50;99.90
6903;DHT22;20232;49.408;8.702;2023-01-29T06:12:37;0.60;99.90
6903;DHT22;20232;49.408;8.702;2023-01-29T06:15:03;0.60;99.90
6903;DHT22;20232;49.408;8.702;2023-01-29T06:17:28;0.50;99.90
6903;DHT22;20232;49.408;8.702;2023-01-29T06:19:54;0.60;99.90
6903;DHT22;20232;49.408;8.702;2023-01-29T06:22:19;0.60;99.90
6903;DHT22;20232;49.408;8.702;2023-01-29T06:24:45;0.60;99.90
6903;DHT22;20232;49.408;8.702;2023-01-29T06:27:10;0.60;99.90
6903;DHT22;20232;49.408;8.702;2023-01-29T06:29:36;0.70;99.90
6903;DHT22;20232;49.408;8.702;2023-01-29T06:32:02;0.70;99.90
6903;DHT22;20232;49.408;8.702;2023-01-29T06:34:27;0.60;99.90
6903;DHT22;20232;49.408;8.702;2023-01-29T06:36:53;0.60;99.90
6903;DHT22;20232;49.408;8.702;2023-01-29T06:39:18;0.60;99.90
6903;DHT22;20232;49.408;8.702;2023-01-29T06:41:44;0.60;99.90
6903;DHT22;20232;49.408;8.702;2023-01-29T06:44:10;0.60;99.90
6903;DHT22;20232;49.408;8.702;2023-01-29T06:46:36;0.60;99.90
6903;DHT22;20232;49.408;8.702;2023-01-29T06:49:02;0.70;99.90
6903;DHT22;20232;49.408;8.702;2023-01-29T06:51:27;0.70;99.90
6903;DHT22;20232;49.408;8.702;2023-01-29T06:53:53;0.70;99.90
6903;DHT22;20232;49.408;8.702;2023-01-29T06:56:20;0.70;99.90
6903;DHT22;20232;49.408;8.702;2023-01-29T06:58:46;0.60;99.90
6903;DHT22;20232;49.408;8.702;2023-01-29T07:01:12;0.50;99.90
6903;DHT22;20232;49.408;8.702;2023-01-29T07:03:38;0.40;99.90
6903;DHT22;20232;49.408;8.702;2023-01-29T07:06:04;0.40;99.90
6903;DHT22;20232;49.408;8.702;2023-01-29T07:08:30;0.40;99.90
6903;DHT22;20232;49.408;8.702;2023-01-29T07:10:59;0.40;99.90
6903;DHT22;20232;49.408;8.702;2023-01-29T07:13:25;0.40;99.90
6903;DHT22;20232;49.408;8.702;2023-01-29T07:15:50;0.30;99.90
6903;DHT22;20232;49.408;8.702;2023-01-29T07:18:16;0.40;99.90
6903;DHT22;20232;49.408;8.702;2023-01-29T07:20:42;0.40;99.90
6903;DHT22;20232;49.408;8.702;2023-01-29T07:23:14;0.40;99.90
6903;DHT22;20232;49.408;8.702;2023-01-29T07:25:40;0.50;99.90
6903;DHT22;20232;49.408;8.702;2023-01-29T07:28:05;0.50;99.90
6903;DHT22;20232;49.408;8.702;2023-01-29T07:30:31;0.50;99.90
6903;DHT22;20232;49.408;8.702;2023-01-29T07:33:02;0.50;99.90
6903;DHT22;20232;49.408;8.702;2023-01-29T07:35:27;0.50;99.90
6903;DHT22;20232;49.408;8.702;2023-01-29T07:37:53;0.50;99.90
6903;DHT22;20232;49.408;8.702;2023-01-29T07:40:18;0.50;99.90
6903;DHT22;20232;49.408;8.702;2023-01-29T07:42:44;0.50;99.90
6903;DHT22;20232;49.408;8.702;2023-01-29T07:45:10;0.50;99.90
6903;DHT22;20232;49.408;8.702;2023-01-29T07:47:36;0.50;99.90
6903;DHT22;20232;49.408;8.702;2023-01-29T07:50:02;0.50;99.90
6903;DHT22;20232;49.408;8.702;2023-01-29T07:52:29;0.60;99.90
6903;DHT22;20232;49.408;8.702;2023-01-29T07:54:55;0.50;99.90
6903;DHT22;20232;49.408;8.702;2023-01-29T07:57:21;0.50;99.90
6903;DHT22;20232;49.408;8.702;2023-01-29T07:59:46;0.40;99.90
6903;DHT22;20232;49.408;8.702;2023-01-29T08:02:12;0.40;99.90
6903;DHT22;20232;49.408;8.702;2023-01-29T08:04:38;0.40;99.90
6903;DHT22;20232;49.408;8.702;2023-01-29T08:07:03;0.40;99.90
6903;DHT22;20232;49.408;8.702;2023-01-29T08:09:29;0.40;99.90
6903;DHT22;20232;49.408;8.702;2023-01-29T08:11:55;0.30;99.90
6903;DHT22;20232;49.408;8.702;2023-01-29T08:14:22;0.40;99.90
6903;DHT22;20232;49.408;8.702;2023-01-29T08:16:48;0.40;99.90
6903;DHT22;20232;49.408;8.702;2023-01-29T08:19:13;0.50;99.90
6903;DHT22;20232;49.408;8.702;2023-01-29T08:21:39;0.60;99.90
6903;DHT22;20232;49.408;8.702;2023-01-29T08:24:05;0.70;99.90
6903;DHT22;20232;49.408;8.702;2023-01-29T08:26:30;0.80;99.90
6903;DHT22;20232;49.408;8.702;2023-01-29T08:28:56;0.90;99.90
6903;DHT22;20232;49.408;8.702;2023-01-29T08:31:21;1.00;99.90
6903;DHT22;20232;49.408;8.702;2023-01-29T08:33:47;1.00;99.90
6903;DHT22;20232;49.408;8.702;2023-01-29T08:36:13;1.10;99.90
6903;DHT22;20232;49.408;8.702;2023-01-29T08:38:39;1.10;99.90
6903;DHT22;20232;49.408;8.702;2023-01-29T08:41:05;1.20;99.90
6903;DHT22;20232;49.408;8.702;2023-01-29T08:43:31;1.20;99.90
6903;DHT22;20232;49.408;8.702;2023-01-29T08:45:57;1.10;99.90
6903;DHT22;20232;49.408;8.702;2023-01-29T08:48:22;1.10;99.90
6903;DHT22;20232;49.408;8.702;2023-01-29T08:50:49;1.20;99.90
6903;DHT22;20232;49.408;8.702;2023-01-29T08:53:15;1.20;99.90
6903;DHT22;20232;49.408;8.702;2023-01-29T08:55:40;1.20;99.90
6903;DHT22;20232;49.408;8.702;2023-01-29T08:58:07;1.20;99.90
6903;DHT22;20232;49.408;8.702;2023-01-29T09:00:34;1.30;99.90
6903;DHT22;20232;49.408;8.702;2023-01-29T09:03:00;1.30;99.90
6903;DHT22;20232;49.408;8.702;2023-01-29T09:05:26;1.30;99.90
6903;DHT22;20232;49.408;8.702;2023-01-29T09:07:52;1.30;99.90
6903;DHT22;20232;49.408;8.702;2023-01-29T09:10:18;1.30;99.90
6903;DHT22;20232;49.408;8.702;2023-01-29T09:12:44;1.20;99.90
6903;DHT22;20232;49.408;8.702;2023-01-29T09:15:10;1.10;99.90
6903;DHT22;20232;49.408;8.702;2023-01-29T09:17:35;1.20;99.90
6903;DHT22;20232;49.408;8.702;2023-01-29T09:20:01;1.20;99.90
6903;DHT22;20232;49.408;8.702;2023-01-29T09:22:27;1.30;99.90
6903;DHT22;20232;49.408;8.702;2023-01-29T09:24:53;1.30;99.90
6903;DHT22;20232;49.408;8.702;2023-01-29T09:27:18;1.40;99.90
6903;DHT22;20232;49.408;8.702;2023-01-29T09:29:44;1.60;99.90
6903;DHT22;20232;49.408;8.702;2023-01-29T09:32:09;1.60;99.90
6903;DHT22;20232;49.408;8.702;2023-01-29T09:34:35;1.60;99.90
6903;DHT22;20232;49.408;8.702;2023-01-29T09:37:01;1.60;99.90
6903;DHT22;20232;49.408;8.702;2023-01-29T09:39:26;1.50;99.90
6903;DHT22;20232;49.408;8.702;2023-01-29T09:47:29;1.70;99.90
6903;DHT22;20232;49.408;8.702;2023-01-29T09:50:06;1.80;99.90
6903;DHT22;20232;49.408;8.702;2023-01-29T09:52:40;1.80;99.90
6903;DHT22;20232;49.408;8.702;2023-01-29T09:55:11;1.90;99.90
6903;DHT22;20232;49.408;8.702;2023-01-29T09:57:49;2.10;99.90
6903;DHT22;20232;49.408;8.702;2023-01-29T10:00:19;2.20;99.90
6903;DHT22;20232;49.408;8.702;2023-01-29T10:03:37;2.10;99.90
6903;DHT22;20232;49.408;8.702;2023-01-29T10:11:16;2.30;99.90
6903;DHT22;20232;49.408;8.702;2023-01-29T10:14:01;2.30;99.90
6903;DHT22;20232;49.408;8.702;2023-01-29T10:19:40;2.30;99.90
6903;DHT22;20232;49.408;8.702;2023-01-29T10:22:21;2.20;99.90
6903;DHT22;20232;49.408;8.702;2023-01-29T10:24:56;2.20;99.90
6903;DHT22;20232;49.408;8.702;2023-01-29T10:27:24;2.30;99.90
6903;DHT22;20232;49.408;8.702;2023-01-29T10:29:52;2.40;99.90
6903;DHT22;20232;49.408;8.702;2023-01-29T10:32:22;2.40;99.90
6903;DHT22;20232;49.408;8.702;2023-01-29T10:35:04;2.50;99.90
6903;DHT22;20232;49.408;8.702;2023-01-29T10:37:39;2.60;99.90
6903;DHT22;20232;49.408;8.702;2023-01-29T10:43:11;2.70;99.90
6903;DHT22;20232;49.408;8.702;2023-01-29T10:46:13;2.60;99.90
6903;DHT22;20232;49.408;8.702;2023-01-29T10:58:08;2.40;99.90
6903;DHT22;20232;49.408;8.702;2023-01-29T11:00:38;2.40;99.90
6903;DHT22;20232;49.408;8.702;2023-01-29T11:03:20;2.50;99.90
6903;DHT22;20232;49.408;8.702;2023-01-29T11:05:54;2.60;99.90
6903;DHT22;20232;49.408;8.702;2023-01-29T11:08:22;2.80;99.90
6903;DHT22;20232;49.408;8.702;2023-01-29T11:13:28;3.00;99.90
6903;DHT22;20232;49.408;8.702;2023-01-29T11:15:55;3.00;99.90
6903;DHT22;20232;49.408;8.702;2023-01-29T11:18:21;2.80;99.90
6903;DHT22;20232;49.408;8.702;2023-01-29T11:20:59;2.50;99.90
6903;DHT22;20232;49.408;8.702;2023-01-29T11:23:31;2.40;99.90
6903;DHT22;20232;49.408;8.702;2023-01-29T11:25:58;2.30;99.90
6903;DHT22;20232;49.408;8.702;2023-01-29T11:28:42;2.30;99.90
6903;DHT22;20232;49.408;8.702;2023-01-29T11:31:21;2.50;99.90
6903;DHT22;20232;49.408;8.702;2023-01-29T11:33:49;2.60;99.90
6903;DHT22;20232;49.408;8.702;2023-01-29T11:36:36;2.70;99.90
6903;DHT22;20232;49.408;8.702;2023-01-29T11:39:22;2.70;99.90
6903;DHT22;20232;49.408;8.702;2023-01-29T11:42:02;2.80;99.90
6903;DHT22;20232;49.408;8.702;2023-01-29T11:44:41;2.80;99.90
6903;DHT22;20232;49.408;8.702;2023-01-29T11:47:17;2.90;99.90
6903;DHT22;20232;49.408;8.702;2023-01-29T11:49:48;2.90;99.90
6903;DHT22;20232;49.408;8.702;2023-01-29T11:52:17;2.90;99.90
6903;DHT22;20232;49.408;8.702;2023-01-29T11:54:48;2.90;99.90
6903;DHT22;20232;49.408;8.702;2023-01-29T11:57:47;2.80;99.90
6903;DHT22;20232;49.408;8.702;2023-01-29T12:00:23;2.70;99.90
6903;DHT22;20232;49.408;8.702;2023-01-29T12:03:13;2.60;99.90
6903;DHT22;20232;49.408;8.702;2023-01-29T12:08:35;2.40;99.90
6903;DHT22;20232;49.408;8.702;2023-01-29T12:13:56;2.50;99.90
6903;DHT22;20232;49.408;8.702;2023-01-29T12:16:27;2.50;99.90
6903;DHT22;20232;49.408;8.702;2023-01-29T12:21:54;2.60;99.90
6903;DHT22;20232;49.408;8.702;2023-01-29T12:24:39;2.60;99.90
6903;DHT22;20232;49.408;8.702;2023-01-29T12:27:27;2.40;99.90
6903;DHT22;20232;49.408;8.702;2023-01-29T12:35:29;2.40;99.90
6903;DHT22;20232;49.408;8.702;2023-01-29T12:40:33;2.60;99.90
6903;DHT22;20232;49.408;8.702;2023-01-29T12:43:09;2.50;99.90
6903;DHT22;20232;49.408;8.702;2023-01-29T12:45:36;2.40;99.90
6903;DHT22;20232;49.408;8.702;2023-01-29T12:48:09;2.60;99.90
6903;DHT22;20232;49.408;8.702;2023-01-29T12:50:36;2.80;99.90
6903;DHT22;20232;49.408;8.702;2023-01-29T12:53:06;3.00;99.90
6903;DHT22;20232;49.408;8.702;2023-01-29T12:55:43;3.10;99.90
6903;DHT22;20232;49.408;8.702;2023-01-29T12:58:15;3.10;99.90
6903;DHT22;20232;49.408;8.702;2023-01-29T13:00:46;3.20;99.90
6903;DHT22;20232;49.408;8.702;2023-01-29T13:05:56;3.40;99.90
6903;DHT22;20232;49.408;8.702;2023-01-29T13:08:31;3.60;99.90
6903;DHT22;20232;49.408;8.702;2023-01-29T13:11:00;3.70;99.90
6903;DHT22;20232;49.408;8.702;2023-01-29T13:13:32;3.80;99.90
6903;DHT22;20232;49.408;8.702;2023-01-29T13:16:03;3.80;99.90
6903;DHT22;20232;49.408;8.702;2023-01-29T13:18:45;3.70;99.90
6903;DHT22;20232;49.408;8.702;2023-01-29T13:21:35;3.60;99.90
6903;DHT22;20232;49.408;8.702;2023-01-29T13:24:02;3.50;99.90
6903;DHT22;20232;49.408;8.702;2023-01-29T13:26:29;3.50;99.90
6903;DHT22;20232;49.408;8.702;2023-01-29T13:28:56;3.50;99.90
6903;DHT22;20232;49.408;8.702;2023-01-29T13:31:27;3.40;99.90
6903;DHT22;20232;49.408;8.702;2023-01-29T13:34:19;3.40;99.90
6903;DHT22;20232;49.408;8.702;2023-01-29T13:36:51;3.10;99.90
6903;DHT22;20232;49.408;8.702;2023-01-29T13:39:26;3.00;99.90
6903;DHT22;20232;49.408;8.702;2023-01-29T13:41:53;3.00;99.90
6903;DHT22;20232;49.408;8.702;2023-01-29T13:44:37;3.00;99.90
6903;DHT22;20232;49.408;8.702;2023-01-29T13:47:06;3.10;99.90
6903;DHT22;20232;49.408;8.702;2023-01-29T13:49:41;3.20;99.90
6903;DHT22;20232;49.408;8.702;2023-01-29T13:52:30;3.40;99.90
6903;DHT22;20232;49.408;8.702;2023-01-29T13:55:03;3.60;99.90
6903;DHT22;20232;49.408;8.702;2023-01-29T14:10:36;2.80;99.90
6903;DHT22;20232;49.408;8.702;2023-01-29T14:18:34;2.60;99.90
6903;DHT22;20232;49.408;8.702;2023-01-29T14:21:28;2.70;99.90
6903;DHT22;20232;49.408;8.702;2023-01-29T14:24:08;2.70;99.90
6903;DHT22;20232;49.408;8.702;2023-01-29T14:32:10;2.70;99.90
6903;DHT22;20232;49.408;8.702;2023-01-29T14:34:50;2.70;99.90
6903;DHT22;20232;49.408;8.702;2023-01-29T14:37:28;2.60;99.90
6903;DHT22;20232;49.408;8.702;2023-01-29T14:39:58;2.60;99.90
6903;DHT22;20232;49.408;8.702;2023-01-29T14:47:56;2.60;99.90
6903;DHT22;20232;49.408;8.702;2023-01-29T14:52:57;2.40;99.90
6903;DHT22;20232;49.408;8.702;2023-01-29T14:55:34;2.30;99.90
6903;DHT22;20232;49.408;8.702;2023-01-29T14:58:02;2.20;99.90
6903;DHT22;20232;49.408;8.702;2023-01-29T15:00:37;2.20;99.90
6903;DHT22;20232;49.408;8.702;2023-01-29T15:03:12;2.20;99.90
6903;DHT22;20232;49.408;8.702;2023-01-29T15:05:41;2.10;99.90
6903;DHT22;20232;49.408;8.702;2023-01-29T15:08:17;2.10;99.90
6903;DHT22;20232;49.408;8.702;2023-01-29T15:10:56;2.10;99.90
6903;DHT22;20232;49.408;8.702;2023-01-29T15:14:04;2.00;99.90
6903;DHT22;20232;49.408;8.702;2023-01-29T15:17:06;2.00;99.90
6903;DHT22;20232;49.408;8.702;2023-01-29T15:19:46;2.00;99.90
6903;DHT22;20232;49.408;8.702;2023-01-29T15:22:20;2.00;99.90
6903;DHT22;20232;49.408;8.702;2023-01-29T15:25:08;2.00;99.90
6903;DHT22;20232;49.408;8.702;2023-01-29T15:27:34;2.00;99.90
6903;DHT22;20232;49.408;8.702;2023-01-29T15:30:02;1.90;99.90
6903;DHT22;20232;49.408;8.702;2023-01-29T15:32:35;1.90;99.90
6903;DHT22;20232;49.408;8.702;2023-01-29T15:35:27;1.90;99.90
6903;DHT22;20232;49.408;8.702;2023-01-29T15:38:26;1.80;99.90
6903;DHT22;20232;49.408;8.702;2023-01-29T15:40:55;1.80;99.90
6903;DHT22;20232;49.408;8.702;2023-01-29T15:43:24;1.80;99.90
6903;DHT22;20232;49.408;8.702;2023-01-29T15:45:51;1.80;99.90
6903;DHT22;20232;49.408;8.702;2023-01-29T15:48:33;1.80;99.90
6903;DHT22;20232;49.408;8.702;2023-01-29T15:51:00;1.80;99.90
6903;DHT22;20232;49.408;8.702;2023-01-29T15:53:53;1.80;99.90
6903;DHT22;20232;49.408;8.702;2023-01-29T15:59:18;1.80;99.90
6903;DHT22;20232;49.408;8.702;2023-01-29T16:01:46;1.70;99.90
6903;DHT22;20232;49.408;8.702;2023-01-29T16:04:16;1.80;99.90
6903;DHT22;20232;49.408;8.702;2023-01-29T16:06:43;1.80;99.90
6903;DHT22;20232;49.408;8.702;2023-01-29T16:09:14;1.70;99.90
6903;DHT22;20232;49.408;8.702;2023-01-29T16:11:42;1.60;99.90
6903;DHT22;20232;49.408;8.702;2023-01-29T16:14:12;1.50;99.90
6903;DHT22;20232;49.408;8.702;2023-01-29T16:16:39;1.50;99.90
6903;DHT22;20232;49.408;8.702;2023-01-29T16:19:28;1.40;99.90
6903;DHT22;20232;49.408;8.702;2023-01-29T16:21:58;1.20;99.90
6903;DHT22;20232;49.408;8.702;2023-01-29T16:24:24;1.10;99.90
6903;DHT22;20232;49.408;8.702;2023-01-29T16:26:52;1.00;99.90
6903;DHT22;20232;49.408;8.702;2023-01-29T16:29:29;0.90;99.90
6903;DHT22;20232;49.408;8.702;2023-01-29T16:31:55;0.80;99.90
6903;DHT22;20232;49.408;8.702;2023-01-29T16:34:32;0.80;99.90
6903;DHT22;20232;49.408;8.702;2023-01-29T16:37:04;0.80;99.90
6903;DHT22;20232;49.408;8.702;2023-01-29T16:39:42;0.70;99.90
6903;DHT22;20232;49.408;8.702;2023-01-29T16:44:55;0.80;99.90
6903;DHT22;20232;49.408;8.702;2023-01-29T16:47:38;0.80;99.90
6903;DHT22;20232;49.408;8.702;2023-01-29T16:50:31;0.80;99.90
6903;DHT22;20232;49.408;8.702;2023-01-29T16:53:02;0.80;99.90
6903;DHT22;20232;49.408;8.702;2023-01-29T16:55:36;0.80;99.90
6903;DHT22;20232;49.408;8.702;2023-01-29T16:58:11;0.70;99.90
6903;DHT22;20232;49.408;8.702;2023-01-29T17:00:48;0.60;99.90
6903;DHT22;20232;49.408;8.702;2023-01-29T17:03:16;0.50;99.90
6903;DHT22;20232;49.408;8.702;2023-01-29T17:05:42;0.50;99.90
6903;DHT22;20232;49.408;8.702;2023-01-29T17:08:28;0.50;99.90
6903;DHT22;20232;49.408;8.702;2023-01-29T17:10:54;0.50;99.90
6903;DHT22;20232;49.408;8.702;2023-01-29T17:13:37;0.40;99.90
6903;DHT22;20232;49.408;8.702;2023-01-29T17:16:30;0.40;99.90
6903;DHT22;20232;49.408;8.702;2023-01-29T17:18:57;0.40;99.90
6903;DHT22;20232;49.408;8.702;2023-01-29T17:21:23;0.40;99.90
6903;DHT22;20232;49.408;8.702;2023-01-29T17:23:49;0.30;99.90
6903;DHT22;20232;49.408;8.702;2023-01-29T17:26:15;0.30;99.90
6903;DHT22;20232;49.408;8.702;2023-01-29T17:28:41;0.20;99.90
6903;DHT22;20232;49.408;8.702;2023-01-29T17:31:07;0.20;99.90
6903;DHT22;20232;49.408;8.702;2023-01-29T17:33:41;0.20;99.90
6903;DHT22;20232;49.408;8.702;2023-01-29T17:36:12;0.20;99.90
6903;DHT22;20232;49.408;8.702;2023-01-29T17:38:38;0.20;99.90
6903;DHT22;20232;49.408;8.702;2023-01-29T17:41:18;0.10;99.90
6903;DHT22;20232;49.408;8.702;2023-01-29T17:43:45;0.10;99.90
6903;DHT22;20232;49.408;8.702;2023-01-29T17:46:14;0.10;99.90
6903;DHT22;20232;49.408;8.702;2023-01-29T17:48:40;0.10;99.90
6903;DHT22;20232;49.408;8.702;2023-01-29T17:51:08;0.10;99.90
6903;DHT22;20232;49.408;8.702;2023-01-29T17:53:34;0.10;99.90
6903;DHT22;20232;49.408;8.702;2023-01-29T17:55:59;0.10;99.90
6903;DHT22;20232;49.408;8.702;2023-01-29T17:58:26;0.20;99.90
6903;DHT22;20232;49.408;8.702;2023-01-29T18:00:53;0.20;99.90
6903;DHT22;20232;49.408;8.702;2023-01-29T18:03:19;0.30;99.90
6903;DHT22;20232;49.408;8.702;2023-01-29T18:05:46;0.30;99.90
6903;DHT22;20232;49.408;8.702;2023-01-29T18:08:33;0.30;99.90
6903;DHT22;20232;49.408;8.702;2023-01-29T18:11:00;0.30;99.90
6903;DHT22;20232;49.408;8.702;2023-01-29T18:13:26;0.40;99.90
6903;DHT22;20232;49.408;8.702;2023-01-29T18:15:51;0.50;99.90
6903;DHT22;20232;49.408;8.702;2023-01-29T18:18:19;0.50;99.90
6903;DHT22;20232;49.408;8.702;2023-01-29T18:20:45;0.60;99.90
6903;DHT22;20232;49.408;8.702;2023-01-29T18:23:11;0.70;99.90
6903;DHT22;20232;49.408;8.702;2023-01-29T18:25:37;0.80;99.90
6903;DHT22;20232;49.408;8.702;2023-01-29T18:28:04;0.80;99.90
6903;DHT22;20232;49.408;8.702;2023-01-29T18:30:33;0.80;99.90
6903;DHT22;20232;49.408;8.702;2023-01-29T18:32:58;0.90;99.90
6903;DHT22;20232;49.408;8.702;2023-01-29T18:35:25;1.00;99.90
6903;DHT22;20232;49.408;8.702;2023-01-29T18:37:51;1.10;99.90
6903;DHT22;20232;49.408;8.702;2023-01-29T18:40:17;1.10;99.90
6903;DHT22;20232;49.408;8.702;2023-01-29T18:42:44;1.10;99.90
6903;DHT22;20232;49.408;8.702;2023-01-29T18:45:10;1.10;99.90
6903;DHT22;20232;49.408;8.702;2023-01-29T18:47:36;1.10;99.90
6903;DHT22;20232;49.408;8.702;2023-01-29T18:50:02;1.10;99.90
6903;DHT22;20232;49.408;8.702;2023-01-29T18:52:28;1.00;99.90
6903;DHT22;20232;49.408;8.702;2023-01-29T18:54:54;0.90;99.90
6903;DHT22;20232;49.408;8.702;2023-01-29T18:57:19;0.80;99.90
6903;DHT22;20232;49.408;8.702;2023-01-29T18:59:45;0.80;99.90
6903;DHT22;20232;49.408;8.702;2023-01-29T19:02:15;0.80;99.90
6903;DHT22;20232;49.408;8.702;2023-01-29T19:04:41;0.80;99.90
6903;DHT22;20232;49.408;8.702;2023-01-29T19:07:10;0.80;99.90
6903;DHT22;20232;49.408;8.702;2023-01-29T19:09:36;0.80;99.90
6903;DHT22;20232;49.408;8.702;2023-01-29T19:12:03;0.70;99.90
6903;DHT22;20232;49.408;8.702;2023-01-29T19:14:29;0.60;99.90
6903;DHT22;20232;49.408;8.702;2023-01-29T19:16:55;0.60;99.90
6903;DHT22;20232;49.408;8.702;2023-01-29T19:19:21;0.60;99.90
6903;DHT22;20232;49.408;8.702;2023-01-29T19:21:46;0.60;99.90
6903;DHT22;20232;49.408;8.702;2023-01-29T19:24:12;0.70;99.90
6903;DHT22;20232;49.408;8.702;2023-01-29T19:26:39;0.70;99.90
6903;DHT22;20232;49.408;8.702;2023-01-29T19:29:04;0.70;99.90
6903;DHT22;20232;49.408;8.702;2023-01-29T19:31:30;0.70;99.90
6903;DHT22;20232;49.408;8.702;2023-01-29T19:33:58;0.70;99.90
6903;DHT22;20232;49.408;8.702;2023-01-29T19:36:24;0.70;99.90
6903;DHT22;20232;49.408;8.702;2023-01-29T19:38:50;0.70;99.90
6903;DHT22;20232;49.408;8.702;2023-01-29T19:41:16;0.70;99.90
6903;DHT22;20232;49.408;8.702;2023-01-29T19:43:41;0.70;99.90
6903;DHT22;20232;49.408;8.702;2023-01-29T19:46:07;0.60;99.90
6903;DHT22;20232;49.408;8.702;2023-01-29T19:48:34;0.60;99.90
6903;DHT22;20232;49.408;8.702;2023-01-29T19:51:02;0.60;99.90
6903;DHT22;20232;49.408;8.702;2023-01-29T19:53:29;0.50;99.90
6903;DHT22;20232;49.408;8.702;2023-01-29T19:56:00;0.50;99.90
6903;DHT22;20232;49.408;8.702;2023-01-29T19:58:26;0.50;99.90
6903;DHT22;20232;49.408;8.702;2023-01-29T20:00:54;0.40;99.90
6903;DHT22;20232;49.408;8.702;2023-01-29T20:03:20;0.40;99.90
6903;DHT22;20232;49.408;8.702;2023-01-29T20:05:45;0.40;99.90
6903;DHT22;20232;49.408;8.702;2023-01-29T20:08:11;0.30;99.90
6903;DHT22;20232;49.408;8.702;2023-01-29T20:10:36;0.30;99.90
6903;DHT22;20232;49.408;8.702;2023-01-29T20:13:02;0.20;99.90
6903;DHT22;20232;49.408;8.702;2023-01-29T20:15:27;0.10;99.90
6903;DHT22;20232;49.408;8.702;2023-01-29T20:17:53;0.10;99.90
6903;DHT22;20232;49.408;8.702;2023-01-29T20:20:18;0.10;99.90
6903;DHT22;20232;49.408;8.702;2023-01-29T20:22:44;0.10;99.90
6903;DHT22;20232;49.408;8.702;2023-01-29T20:25:09;0.10;99.90
6903;DHT22;20232;49.408;8.702;2023-01-29T20:27:38;0.10;99.90
6903;DHT22;20232;49.408;8.702;2023-01-29T20:30:04;0.10;99.90
6903;DHT22;20232;49.408;8.702;2023-01-29T20:32:30;0.10;99.90
6903;DHT22;20232;49.408;8.702;2023-01-29T20:34:57;0.00;99.90
6903;DHT22;20232;49.408;8.702;2023-01-29T20:37:22;0.10;99.90
6903;DHT22;20232;49.408;8.702;2023-01-29T20:39:48;0.00;99.90
6903;DHT22;20232;49.408;8.702;2023-01-29T20:42:13;0.00;99.90
6903;DHT22;20232;49.408;8.702;2023-01-29T20:44:39;0.10;99.90
6903;DHT22;20232;49.408;8.702;2023-01-29T20:47:05;0.10;99.90
6903;DHT22;20232;49.408;8.702;2023-01-29T20:49:30;0.10;99.90
6903;DHT22;20232;49.408;8.702;2023-01-29T20:51:56;0.10;99.90
6903;DHT22;20232;49.408;8.702;2023-01-29T20:54:21;0.10;99.90
6903;DHT22;20232;49.408;8.702;2023-01-29T20:56:47;0.20;99.90
6903;DHT22;20232;49.408;8.702;2023-01-29T20:59:12;0.20;99.90
6903;DHT22;20232;49.408;8.702;2023-01-29T21:01:38;0.20;99.90
6903;DHT22;20232;49.408;8.702;2023-01-29T21:04:03;0.30;99.90
6903;DHT22;20232;49.408;8.702;2023-01-29T21:06:30;0.40;99.90
6903;DHT22;20232;49.408;8.702;2023-01-29T21:08:55;0.40;99.90
6903;DHT22;20232;49.408;8.702;2023-01-29T21:11:21;0.40;99.90
6903;DHT22;20232;49.408;8.702;2023-01-29T21:13:46;0.40;99.90
6903;DHT22;20232;49.408;8.702;2023-01-29T21:16:12;0.40;99.90
6903;DHT22;20232;49.408;8.702;2023-01-29T21:18:38;0.40;99.90
6903;DHT22;20232;49.408;8.702;2023-01-29T21:21:04;0.40;99.90
6903;DHT22;20232;49.408;8.702;2023-01-29T21:23:29;0.50;99.90
6903;DHT22;20232;49.408;8.702;2023-01-29T21:26:02;0.50;99.90
6903;DHT22;20232;49.408;8.702;2023-01-29T21:28:28;0.60;99.90
6903;DHT22;20232;49.408;8.702;2023-01-29T21:31:12;0.70;99.90
6903;DHT22;20232;49.408;8.702;2023-01-29T21:33:39;0.70;99.90
6903;DHT22;20232;49.408;8.702;2023-01-29T21:36:05;0.80;99.90
6903;DHT22;20232;49.408;8.702;2023-01-29T21:38:31;0.80;99.90
6903;DHT22;20232;49.408;8.702;2023-01-29T21:41:05;0.80;99.90
6903;DHT22;20232;49.408;8.702;2023-01-29T21:43:31;0.80;99.90
6903;DHT22;20232;49.408;8.702;2023-01-29T21:45:59;0.80;99.90
6903;DHT22;20232;49.408;8.702;2023-01-29T21:48:25;0.80;99.90
6903;DHT22;20232;49.408;8.702;2023-01-29T21:50:51;0.80;99.90
6903;DHT22;20232;49.408;8.702;2023-01-29T21:53:17;0.80;99.90
6903;DHT22;20232;49.408;8.702;2023-01-29T21:55:43;0.80;99.90
6903;DHT22;20232;49.408;8.702;2023-01-29T21:58:09;0.70;99.90
6903;DHT22;20232;49.408;8.702;2023-01-29T22:00:35;0.60;99.90
6903;DHT22;20232;49.408;8.702;2023-01-29T22:03:01;0.60;99.90
6903;DHT22;20232;49.408;8.702;2023-01-29T22:05:26;0.60;99.90
6903;DHT22;20232;49.408;8.702;2023-01-29T22:07:53;0.50;99.90
6903;DHT22;20232;49.408;8.702;2023-01-29T22:10:19;0.50;99.90
6903;DHT22;20232;49.408;8.702;2023-01-29T22:12:45;0.50;99.90
6903;DHT22;20232;49.408;8.702;2023-01-29T22:15:11;0.40;99.90
6903;DHT22;20232;49.408;8.702;2023-01-29T22:17:37;0.40;99.90
6903;DHT22;20232;49.408;8.702;2023-01-29T22:20:09;0.40;99.90
6903;DHT22;20232;49.408;8.702;2023-01-29T22:22:36;0.40;99.90
6903;DHT22;20232;49.408;8.702;2023-01-29T22:25:01;0.40;99.90
6903;DHT22;20232;49.408;8.702;2023-01-29T22:27:27;0.40;99.90
6903;DHT22;20232;49.408;8.702;2023-01-29T22:29:53;0.40;99.90
6903;DHT22;20232;49.408;8.702;2023-01-29T22:32:18;0.40;99.90
6903;DHT22;20232;49.408;8.702;2023-01-29T22:34:44;0.40;99.90
6903;DHT22;20232;49.408;8.702;2023-01-29T22:37:10;0.40;99.90
6903;DHT22;20232;49.408;8.702;2023-01-29T22:39:35;0.40;99.90
6903;DHT22;20232;49.408;8.702;2023-01-29T22:42:01;0.30;99.90
6903;DHT22;20232;49.408;8.702;2023-01-29T22:44:26;0.30;99.90